Time;durP1;ratioP1;P1;durP2;ratioP2;P2;SDS_P1;SDS_P2;PMS_P1;PMS_P2;Temp;Humidity;BMP_temperature;BMP_pressure;BME280_temperature;BME280_humidity;BME280_pressure;Samples;Min_cycle;Max_cycle;Signal;HPM_P1;HPM_P2
2022/04/11 00:00:05;;;;;;;11.15;4.22;;;;;;;1.41;77.47;100872.59;1766028;80;21607;-66
2022/04/11 00:02:33;;;;;;;8.15;3.95;;;;;;;1.43;77.52;100870.72;1763392;80;21060;-66
2022/04/11 00:04:59;;;;;;;13.03;6.03;;;;;;;1.45;77.55;100867.50;1768821;80;20974;-66
2022/04/11 00:07:25;;;;;;;8.18;4.17;;;;;;;1.47;77.60;100874.84;1772004;80;21022;-66
2022/04/11 00:09:51;;;;;;;12.43;6.30;;;;;;;1.51;77.63;100875.48;1769810;80;21597;-66
2022/04/11 00:12:17;;;;;;;11.50;4.25;;;;;;;1.51;77.65;100874.98;1766947;80;20947;-66
2022/04/11 00:14:43;;;;;;;14.95;7.17;;;;;;;1.55;77.70;100870.86;1766608;81;21412;-66
2022/04/11 00:17:09;;;;;;;15.23;6.65;;;;;;;1.58;77.73;100878.55;1770839;80;21002;-66
2022/04/11 00:19:35;;;;;;;17.30;9.03;;;;;;;1.61;77.76;100880.97;1775158;80;20997;-66
2022/04/11 00:22:02;;;;;;;14.73;7.22;;;;;;;1.61;77.80;100879.19;1773333;80;21111;-66
2022/04/11 00:24:28;;;;;;;16.12;8.20;;;;;;;1.64;77.82;100882.07;1767547;80;21035;-66
2022/04/11 00:26:54;;;;;;;11.85;5.83;;;;;;;1.63;77.84;100882.54;1767256;80;21043;-66
2022/04/11 00:29:20;;;;;;;13.62;4.50;;;;;;;1.60;77.88;100879.27;1765485;79;21026;-66
2022/04/11 00:31:46;;;;;;;9.35;4.35;;;;;;;1.57;77.91;100880.79;1766540;80;21092;-66
2022/04/11 00:34:13;;;;;;;13.08;6.12;;;;;;;1.51;77.93;100881.55;1766180;80;21041;-66
2022/04/11 00:36:39;;;;;;;11.65;4.97;;;;;;;1.44;77.97;100880.27;1764828;80;22387;-66
2022/04/11 00:39:05;;;;;;;9.73;3.50;;;;;;;1.40;77.99;100878.80;1766443;80;21490;-66
2022/04/11 00:41:31;;;;;;;5.17;2.58;;;;;;;1.35;78.01;100878.25;1763851;80;21011;-66
2022/04/11 00:43:57;;;;;;;9.90;3.67;;;;;;;1.30;78.02;100872.44;1763461;80;20987;-66
2022/04/11 00:46:23;;;;;;;6.72;3.17;;;;;;;1.25;78.04;100873.22;1765654;80;21129;-66
2022/04/11 00:48:49;;;;;;;9.15;3.62;;;;;;;1.20;78.06;100869.19;1766170;80;20867;-66
2022/04/11 00:51:22;;;;;;;8.18;3.42;;;;;;;1.16;78.10;100871.17;1765003;80;20978;-66
2022/04/11 00:53:49;;;;;;;9.73;4.05;;;;;;;1.13;78.11;100871.37;1767946;80;20986;-66
2022/04/11 00:56:19;;;;;;;8.13;3.77;;;;;;;1.09;78.11;100865.94;1766843;80;20990;-66
2022/04/11 00:58:46;;;;;;;5.45;4.25;;;;;;;1.07;78.12;100862.58;1742556;80;21056;-66
2022/04/11 01:01:13;;;;;;;7.47;4.08;;;;;;;1.06;78.14;100860.89;1766585;80;20978;-66
2022/04/11 01:03:39;;;;;;;9.48;3.80;;;;;;;1.05;78.16;100874.98;1672156;80;20994;-66
2022/04/11 01:06:07;;;;;;;7.87;3.80;;;;;;;1.03;78.19;100871.59;1765326;79;21022;-66
2022/04/11 01:08:34;;;;;;;11.80;5.17;;;;;;;1.03;78.21;100871.59;1763262;80;21492;-66
2022/04/11 01:11:02;;;;;;;11.83;4.75;;;;;;;1.03;78.24;100871.59;1766139;80;21308;-66
2022/04/11 01:13:29;;;;;;;15.35;5.45;;;;;;;1.06;78.26;100867.92;1765986;80;21526;-66
2022/04/11 01:15:59;;;;;;;13.83;7.03;;;;;;;1.07;78.27;100863.89;1764298;80;20998;-66
2022/04/11 01:18:26;;;;;;;14.93;9.08;;;;;;;1.10;78.29;100870.26;1763854;80;20987;-66
2022/04/11 01:20:52;;;;;;;20.30;9.03;;;;;;;1.13;78.32;100867.90;1765678;80;20942;-66
2022/04/11 01:23:18;;;;;;;9.43;7.50;;;;;;;1.18;78.33;100862.74;1766211;80;21138;-66
2022/04/11 01:25:52;;;;;;;10.55;8.38;;;;;;;1.22;78.35;100873.42;1773469;80;21026;-66
2022/04/11 01:28:22;;;;;;;12.00;5.67;;;;;;;1.27;78.38;100868.70;1773458;80;21034;-65
2022/04/11 01:30:50;;;;;;;9.08;4.80;;;;;;;1.30;78.40;100857.98;1774300;80;20990;-66
2022/04/11 01:33:24;;;;;;;7.47;6.17;;;;;;;1.36;78.42;100865.96;1773850;80;20987;-66
2022/04/11 01:35:50;;;;;;;13.15;7.85;;;;;;;1.39;78.44;100860.03;1772851;80;21474;-66
2022/04/11 01:38:17;;;;;;;14.78;8.65;;;;;;;1.45;78.46;100855.68;1773602;80;21424;-66
2022/04/11 01:40:53;;;;;;;15.72;8.95;;;;;;;1.49;78.49;100861.58;1768219;80;21040;-66
2022/04/11 01:43:20;;;;;;;10.45;7.00;;;;;;;1.53;78.50;100865.70;1770692;80;21446;-66
2022/04/11 01:45:46;;;;;;;11.93;4.80;;;;;;;1.57;78.52;100865.02;1774084;80;21061;-66
2022/04/11 01:48:12;;;;;;;10.68;5.12;;;;;;;1.59;78.53;100861.80;1772756;80;21041;-66
2022/04/11 01:50:39;;;;;;;15.38;8.28;;;;;;;1.61;78.56;100862.56;1775162;80;20958;-66
2022/04/11 01:53:17;;;;;;;20.35;9.20;;;;;;;1.64;78.58;100870.24;1773168;79;21037;-66
2022/04/11 01:55:43;;;;;;;13.10;5.58;;;;;;;1.64;78.60;100871.56;1773830;80;21544;-67
2022/04/11 01:58:09;;;;;;;8.83;4.25;;;;;;;1.66;78.63;100871.81;1773634;80;21014;-66
2022/04/11 02:00:36;;;;;;;9.73;2.83;;;;;;;1.67;78.63;100872.66;1773653;80;22106;-66
2022/04/11 02:03:03;;;;;;;5.55;2.60;;;;;;;1.68;78.65;100880.93;1773453;80;21033;-66
2022/04/11 02:05:29;;;;;;;7.75;2.98;;;;;;;1.67;78.68;100877.45;1753527;80;20998;-66
2022/04/11 02:07:56;;;;;;;12.82;3.22;;;;;;;1.69;78.69;100884.75;1774021;80;21101;-66
2022/04/11 02:10:22;;;;;;;7.90;3.77;;;;;;;1.71;78.70;100883.35;1770483;80;20998;-66
2022/04/11 02:12:48;;;;;;;7.95;2.85;;;;;;;1.73;78.72;100885.39;1769959;80;21531;-66
2022/04/11 02:15:14;;;;;;;8.30;2.98;;;;;;;1.73;78.73;100880.14;1747589;81;20966;-66
2022/04/11 02:17:40;;;;;;;12.03;3.92;;;;;;;1.77;78.75;100886.88;1747947;81;21453;-67
2022/04/11 02:20:07;;;;;;;11.28;2.75;;;;;;;1.80;78.79;100880.09;1764402;81;21465;-66
2022/04/11 02:22:53;;;;;;;11.30;4.03;;;;;;;1.83;78.77;100881.23;1764174;81;21003;-66
2022/04/11 02:25:23;;;;;;;8.18;3.02;;;;;;;1.84;78.81;100875.01;1735468;82;21758;-66
2022/04/11 02:27:49;;;;;;;7.87;2.83;;;;;;;1.84;78.82;100873.70;1742072;82;21589;-66
2022/04/11 02:30:16;;;;;;;9.75;2.98;;;;;;;1.83;78.84;100878.61;1749015;81;22071;-66
2022/04/11 02:32:43;;;;;;;8.35;3.52;;;;;;;1.82;78.85;100878.23;1764184;81;21057;-66
2022/04/11 02:35:09;;;;;;;11.08;4.95;;;;;;;1.80;78.86;100881.41;1764012;81;21019;-66
2022/04/11 02:37:35;;;;;;;15.78;4.62;;;;;;;1.78;78.88;100878.91;1774222;80;21546;-66
2022/04/11 02:40:02;;;;;;;19.62;7.47;;;;;;;1.79;78.88;100883.69;1763881;81;21008;-67
2022/04/11 02:42:29;;;;;;;17.77;7.87;;;;;;;1.79;78.91;100883.23;1774130;80;21031;-66
2022/04/11 02:44:55;;;;;;;17.10;6.35;;;;;;;1.81;78.92;100885.73;1777468;80;21026;-66
2022/04/11 02:47:21;;;;;;;18.10;6.60;;;;;;;1.81;78.92;100886.58;1775738;80;21018;-66
2022/04/11 02:49:47;;;;;;;9.73;4.33;;;;;;;1.82;78.92;100884.33;1774202;80;21137;-66
2022/04/11 02:52:14;;;;;;;6.90;4.25;;;;;;;1.85;78.93;100892.48;1773118;80;21128;-66
2022/04/11 02:54:40;;;;;;;10.55;4.53;;;;;;;1.87;78.93;100887.95;1773791;80;21480;-66
2022/04/11 02:57:06;;;;;;;7.87;3.70;;;;;;;1.88;78.97;100889.17;1773803;80;21065;-67
2022/04/11 02:59:33;;;;;;;9.10;4.35;;;;;;;1.89;78.99;100883.45;1773145;80;21111;-66
2022/04/11 03:02:00;;;;;;;10.18;4.62;;;;;;;1.87;78.99;100882.69;1774165;80;21146;-67
2022/04/11 03:04:29;;;;;;;8.50;4.55;;;;;;;1.82;78.98;100883.48;1773340;80;21395;-67
2022/04/11 03:06:55;;;;;;;17.37;4.70;;;;;;;1.78;79.00;100883.31;1764355;81;20998;-66
2022/04/11 03:09:21;;;;;;;12.40;3.40;;;;;;;1.74;79.02;100885.30;1748760;81;21534;-66
2022/04/11 03:11:47;;;;;;;7.75;3.52;;;;;;;1.72;79.06;100898.19;1751539;81;21497;-66
2022/04/11 03:14:14;;;;;;;7.62;3.25;;;;;;;1.69;79.06;100885.25;1746542;81;22353;-66
2022/04/11 03:16:41;;;;;;;8.85;3.98;;;;;;;1.66;79.09;100890.69;1750935;81;21031;-66
2022/04/11 03:19:08;;;;;;;6.70;2.92;;;;;;;1.64;79.10;100889.95;1756831;81;21034;-67
2022/04/11 03:21:34;;;;;;;9.80;3.10;;;;;;;1.59;79.11;100888.09;1754762;81;21520;-66
2022/04/11 03:24:01;;;;;;;6.97;3.08;;;;;;;1.53;79.13;100883.25;1757053;80;21105;-66
2022/04/11 03:26:27;;;;;;;10.48;3.47;;;;;;;1.46;79.15;100881.03;1756471;81;21140;-67
2022/04/11 03:28:53;;;;;;;11.25;3.75;;;;;;;1.43;79.17;100883.86;1757143;81;20972;-66
2022/04/11 03:31:19;;;;;;;13.80;4.00;;;;;;;1.40;79.18;100888.00;1756581;81;21008;-66
2022/04/11 03:33:45;;;;;;;12.73;4.92;;;;;;;1.38;79.20;100896.44;1754758;81;21050;-66
2022/04/11 03:36:11;;;;;;;8.25;4.08;;;;;;;1.37;79.21;100902.63;1754775;81;21041;-66
2022/04/11 03:38:37;;;;;;;7.60;3.67;;;;;;;1.35;79.21;100895.80;1756679;81;21499;-67
2022/04/11 03:41:03;;;;;;;11.33;5.55;;;;;;;1.32;79.22;100908.67;1754623;81;21451;-67
2022/04/11 03:43:29;;;;;;;15.20;5.53;;;;;;;1.30;79.23;100903.96;1756939;81;20977;-67
2022/04/11 03:45:55;;;;;;;12.93;4.08;;;;;;;1.28;79.23;100907.17;1757538;81;20959;-66
2022/04/11 03:48:22;;;;;;;8.88;3.70;;;;;;;1.25;79.25;100908.69;1757351;81;20994;-66
2022/04/11 03:50:48;;;;;;;16.42;5.00;;;;;;;1.22;79.28;100910.20;1757060;81;21137;-66
2022/04/11 03:53:16;;;;;;;10.95;5.17;;;;;;;1.20;79.30;100913.38;1756448;81;20983;-66
2022/04/11 03:55:42;;;;;;;12.35;4.92;;;;;;;1.17;79.33;100904.85;1756908;81;21026;-66
2022/04/11 03:58:08;;;;;;;10.18;4.62;;;;;;;1.17;79.35;100904.38;1756978;81;20995;-66
2022/04/11 04:00:34;;;;;;;9.13;4.30;;;;;;;1.17;79.36;100908.33;1756902;81;21080;-67
2022/04/11 04:03:09;;;;;;;12.35;4.30;;;;;;;1.17;79.39;100907.02;1756901;81;21153;-67
2022/04/11 04:05:40;;;;;;;11.10;4.90;;;;;;;1.19;79.38;100914.34;1756402;81;21018;-67
2022/04/11 04:08:08;;;;;;;15.38;6.20;;;;;;;1.22;79.40;100919.39;1756428;81;21061;-66
2022/04/11 04:10:34;;;;;;;20.12;7.62;;;;;;;1.25;79.42;100920.97;1756904;81;20978;-66
2022/04/11 04:13:00;;;;;;;13.78;5.87;;;;;;;1.28;79.42;100925.56;1757149;81;20975;-66
2022/04/11 04:15:26;;;;;;;13.80;5.08;;;;;;;1.30;79.45;100932.86;1756964;81;21140;-66
2022/04/11 04:17:53;;;;;;;11.18;4.50;;;;;;;1.31;79.46;100929.30;1756509;81;21496;-66
2022/04/11 04:20:19;;;;;;;12.45;4.67;;;;;;;1.33;79.47;100939.73;1754830;81;21059;-66
2022/04/11 04:22:45;;;;;;;10.05;4.90;;;;;;;1.34;79.49;100938.30;1756619;81;21043;-66
2022/04/11 04:25:11;;;;;;;13.32;5.35;;;;;;;1.36;79.50;100937.75;1762755;80;20899;-66
2022/04/11 04:27:37;;;;;;;13.10;5.35;;;;;;;1.39;79.50;100938.86;1765211;81;21176;-67
2022/04/11 04:30:05;;;;;;;13.03;4.85;;;;;;;1.41;79.54;100940.91;1765584;81;21003;-67
2022/04/11 04:32:31;;;;;;;14.53;5.17;;;;;;;1.43;79.56;100941.67;1762295;81;20984;-66
2022/04/11 04:34:57;;;;;;;15.30;5.45;;;;;;;1.45;79.54;100942.40;1759402;81;21577;-66
2022/04/11 04:37:23;;;;;;;10.72;4.60;;;;;;;1.48;79.58;100947.45;1759071;81;20840;-66
2022/04/11 04:39:49;;;;;;;14.20;4.80;;;;;;;1.51;79.59;100945.13;1758917;81;21226;-67
2022/04/11 04:42:22;;;;;;;10.72;4.55;;;;;;;1.55;79.60;100944.45;1759001;81;21061;-66
2022/04/11 04:44:48;;;;;;;12.55;4.20;;;;;;;1.59;79.62;100948.54;1759014;81;21027;-66
2022/04/11 04:47:17;;;;;;;11.28;4.37;;;;;;;1.61;79.63;100951.93;1761386;81;20896;-66
2022/04/11 04:49:44;;;;;;;12.10;4.95;;;;;;;1.65;79.63;100954.27;1759151;81;21025;-67
2022/04/11 04:52:10;;;;;;;13.25;4.65;;;;;;;1.68;79.66;100951.44;1765397;81;21507;-66
2022/04/11 04:54:36;;;;;;;13.75;5.53;;;;;;;1.73;79.69;100953.74;1763687;81;21058;-66
2022/04/11 04:57:03;;;;;;;16.12;5.28;;;;;;;1.79;79.68;100952.05;1762666;81;21014;-66
2022/04/11 04:59:29;;;;;;;17.60;5.37;;;;;;;1.82;79.68;100957.95;1765659;81;21093;-67
2022/04/11 05:01:56;;;;;;;14.25;5.70;;;;;;;1.87;79.71;100957.16;1765062;81;21459;-67
2022/04/11 05:04:22;;;;;;;14.73;6.00;;;;;;;1.93;79.73;100961.20;1764728;81;21989;-66
2022/04/11 05:06:48;;;;;;;12.18;6.30;;;;;;;1.97;79.72;100961.37;1761742;81;20987;-66
2022/04/11 05:09:14;;;;;;;18.02;8.18;;;;;;;2.01;79.73;100961.50;1761946;81;21007;-66
2022/04/11 05:11:40;;;;;;;19.62;12.05;;;;;;;2.07;79.73;100965.53;1764222;79;20987;-67
2022/04/11 05:14:06;;;;;;;21.60;10.28;;;;;;;2.11;79.74;100962.58;1766941;81;21035;-67
2022/04/11 05:16:33;;;;;;;17.12;6.78;;;;;;;2.17;79.74;100963.97;1764934;80;21158;-67
2022/04/11 05:18:59;;;;;;;16.60;6.65;;;;;;;2.23;79.76;100965.72;1764750;81;21478;-67
2022/04/11 05:21:25;;;;;;;20.60;8.08;;;;;;;2.26;79.75;100966.83;1764468;80;21644;-66
2022/04/11 05:23:50;;;;;;;21.45;6.97;;;;;;;2.31;79.76;100964.73;1763547;80;22151;-67
2022/04/11 05:26:18;;;;;;;22.98;7.22;;;;;;;2.38;79.77;100971.27;1756405;81;21018;-66
2022/04/11 05:28:46;;;;;;;20.68;8.45;;;;;;;2.44;79.73;100972.63;1756119;81;21528;-67
2022/04/11 05:31:12;;;;;;;28.70;9.08;;;;;;;2.50;79.72;100976.16;1756721;81;21042;-66
2022/04/11 05:33:38;;;;;;;22.10;9.65;;;;;;;2.60;79.70;100977.24;1755207;81;20994;-67
2022/04/11 05:36:05;;;;;;;18.00;8.23;;;;;;;2.77;79.70;100983.97;1756558;81;20891;-66
2022/04/11 05:38:31;;;;;;;20.27;6.37;;;;;;;2.97;79.68;100975.05;1756761;81;21059;-67
2022/04/11 05:40:58;;;;;;;15.25;5.83;;;;;;;3.33;79.64;100972.93;1756627;81;21191;-67
2022/04/11 05:43:24;;;;;;;12.53;5.40;;;;;;;3.67;79.60;100975.75;1756827;81;21045;-67
2022/04/11 05:45:50;;;;;;;16.82;7.33;;;;;;;4.00;79.55;100982.52;1756941;81;20906;-67
2022/04/11 05:48:16;;;;;;;19.42;10.55;;;;;;;4.08;79.58;100985.45;1757134;81;21030;-67
2022/04/11 05:50:42;;;;;;;14.90;5.12;;;;;;;4.31;79.50;100977.95;1757394;81;21622;-67
2022/04/11 05:53:08;;;;;;;11.80;4.65;;;;;;;4.73;79.46;100975.63;1756628;81;21805;-67
2022/04/11 05:55:35;;;;;;;10.50;4.45;;;;;;;5.14;79.38;100974.55;1756528;81;21539;-67
2022/04/11 05:58:00;;;;;;;18.52;5.10;;;;;;;5.39;79.32;100978.73;1756670;81;21019;-67
2022/04/11 06:00:26;;;;;;;14.18;5.72;;;;;;;5.33;79.23;100976.11;1757272;81;21567;-67
2022/04/11 06:02:52;;;;;;;16.82;4.80;;;;;;;5.20;79.17;100971.92;1756658;81;21081;-67
2022/04/11 06:05:18;;;;;;;14.23;6.83;;;;;;;5.12;79.07;100979.13;1756398;81;21159;-67
2022/04/11 06:07:44;;;;;;;21.37;6.80;;;;;;;5.17;78.91;100974.81;1756433;81;21094;-67
2022/04/11 06:10:11;;;;;;;20.52;8.68;;;;;;;5.23;78.76;100969.88;1756518;81;21038;-67
2022/04/11 06:12:37;;;;;;;23.02;9.78;;;;;;;5.24;78.56;100978.14;1756727;81;20951;-67
2022/04/11 06:15:04;;;;;;;17.80;6.62;;;;;;;5.28;78.46;100980.91;1756455;81;21446;-67
2022/04/11 06:17:30;;;;;;;12.93;4.95;;;;;;;5.37;78.33;100985.48;1755340;81;21121;-67
2022/04/11 06:19:57;;;;;;;20.37;6.45;;;;;;;5.52;78.14;100984.75;1756480;81;20970;-67
2022/04/11 06:22:23;;;;;;;32.05;11.80;;;;;;;5.59;77.93;100975.35;1755759;81;21077;-67
2022/04/11 06:24:49;;;;;;;18.90;7.67;;;;;;;5.46;77.72;100987.38;1754293;81;21026;-67
2022/04/11 06:27:17;;;;;;;22.77;9.38;;;;;;;5.49;77.56;100987.13;1756275;81;20997;-67
2022/04/11 06:29:44;;;;;;;17.65;6.55;;;;;;;5.76;77.35;100984.56;1757003;81;21174;-67
2022/04/11 06:32:10;;;;;;;320.37;130.22;;;;;;;5.74;77.15;100989.12;1756177;81;21042;-67
2022/04/11 06:34:36;;;;;;;30.65;10.90;;;;;;;5.54;76.98;100991.59;1756336;81;21026;-67
2022/04/11 06:37:03;;;;;;;21.23;7.87;;;;;;;5.79;76.83;100984.31;1756740;81;20990;-67
2022/04/11 06:39:30;;;;;;;18.23;7.33;;;;;;;6.16;76.65;100980.34;1756832;81;21445;-67
2022/04/11 06:41:56;;;;;;;9.58;5.00;;;;;;;6.36;76.45;100985.31;1756696;81;21108;-67
2022/04/11 06:44:22;;;;;;;13.35;6.10;;;;;;;6.59;76.25;100992.63;1757222;81;21010;-67
2022/04/11 06:46:48;;;;;;;10.15;3.80;;;;;;;6.85;76.07;100984.16;1757503;81;20992;-67
2022/04/11 06:49:14;;;;;;;15.20;6.40;;;;;;;7.05;75.87;100982.42;1757197;81;21523;-68
2022/04/11 06:51:41;;;;;;;11.93;4.30;;;;;;;7.10;75.59;100988.66;1757502;81;21569;-68
2022/04/11 06:54:07;;;;;;;10.10;5.85;;;;;;;6.88;75.29;100989.67;1757368;81;21253;-68
2022/04/11 06:56:33;;;;;;;17.85;8.80;;;;;;;6.96;75.08;100986.73;1757442;81;20997;-68
2022/04/11 06:58:59;;;;;;;14.03;6.80;;;;;;;7.13;74.84;100981.77;1757153;81;20997;-68
2022/04/11 07:01:25;;;;;;;26.75;15.68;;;;;;;7.28;74.65;100989.20;1757040;81;21042;-68
2022/04/11 07:03:51;;;;;;;16.25;6.05;;;;;;;7.36;74.34;100991.19;1753734;81;20868;-68
2022/04/11 07:06:17;;;;;;;12.30;5.62;;;;;;;7.46;74.07;100995.55;1756545;81;21821;-68
2022/04/11 07:08:43;;;;;;;17.67;5.33;;;;;;;7.54;73.81;100998.38;1754926;81;21030;-68
2022/04/11 07:11:09;;;;;;;8.80;4.00;;;;;;;7.66;73.53;100995.14;1757212;81;21011;-68
2022/04/11 07:13:35;;;;;;;9.13;3.08;;;;;;;7.79;73.26;100998.84;1756421;81;21049;-68
2022/04/11 07:16:02;;;;;;;12.43;3.70;;;;;;;7.82;72.94;100991.45;1752700;81;21021;-68
2022/04/11 07:18:28;;;;;;;78.22;38.15;;;;;;;7.80;72.65;100993.90;1750124;81;20983;-68
2022/04/11 07:20:54;;;;;;;30.27;9.15;;;;;;;8.00;72.39;100996.92;1753440;81;21033;-68
2022/04/11 07:23:21;;;;;;;13.15;3.77;;;;;;;7.89;71.94;100997.05;1752441;81;21058;-68
2022/04/11 07:25:47;;;;;;;36.93;11.12;;;;;;;7.88;71.61;101000.70;1752669;80;21102;-68
2022/04/11 07:28:13;;;;;;;16.10;4.75;;;;;;;7.90;71.27;100996.08;1754911;80;21092;-68
2022/04/11 07:30:40;;;;;;;13.95;5.72;;;;;;;7.93;71.07;100995.80;1736136;81;21217;-68
2022/04/11 07:33:08;;;;;;;9.70;3.52;;;;;;;8.16;70.83;100997.22;1757884;80;21032;-68
2022/04/11 07:35:34;;;;;;;10.80;4.12;;;;;;;8.31;70.55;100995.83;1757034;80;21030;-68
2022/04/11 07:38:01;;;;;;;11.57;3.30;;;;;;;8.43;70.30;100990.73;1751977;80;21029;-69
2022/04/11 07:40:30;;;;;;;19.70;4.72;;;;;;;8.52;70.03;100991.20;1755424;80;21049;-68
2022/04/11 07:42:56;;;;;;;8.90;4.30;;;;;;;8.48;69.72;100999.10;1755471;80;21535;-68
2022/04/11 07:45:23;;;;;;;8.83;2.80;;;;;;;8.18;69.45;100995.25;1748716;80;20950;-68
2022/04/11 07:47:49;;;;;;;7.50;3.40;;;;;;;8.22;69.29;100991.34;1751535;80;21515;-69
2022/04/11 07:50:15;;;;;;;9.05;3.02;;;;;;;8.53;69.15;100998.69;1751381;80;21475;-68
2022/04/11 07:52:42;;;;;;;8.85;4.10;;;;;;;8.83;68.90;100987.02;1750404;80;21088;-68
2022/04/11 07:55:10;;;;;;;19.95;5.75;;;;;;;9.10;68.66;100984.41;1758898;80;21142;-68
2022/04/11 07:57:36;;;;;;;6.80;3.05;;;;;;;9.37;68.44;100992.41;1753724;80;20983;-69
2022/04/11 08:00:07;;;;;;;14.10;3.75;;;;;;;9.46;68.02;100988.03;1752374;80;21010;-69
2022/04/11 08:02:34;;;;;;;10.13;4.45;;;;;;;9.40;67.37;100981.94;1743645;80;21081;-69
2022/04/11 08:05:02;;;;;;;9.38;3.30;;;;;;;9.26;66.92;100993.08;1751667;80;21059;-69
2022/04/11 08:07:30;;;;;;;8.73;2.67;;;;;;;9.24;66.64;100993.24;1754653;80;21705;-69
2022/04/11 08:09:56;;;;;;;5.80;2.00;;;;;;;9.26;66.04;101000.57;1754471;80;21047;-69
2022/04/11 08:12:22;;;;;;;8.63;2.77;;;;;;;9.34;65.66;101006.01;1751736;80;21479;-68
2022/04/11 08:14:48;;;;;;;5.45;2.08;;;;;;;9.53;65.29;101004.56;1749640;80;21531;-69
2022/04/11 08:17:14;;;;;;;6.15;1.42;;;;;;;9.54;64.70;101007.58;1753473;80;21040;-69
2022/04/11 08:19:40;;;;;;;6.78;2.42;;;;;;;9.36;63.83;101000.03;1751825;80;21106;-68
2022/04/11 08:22:06;;;;;;;5.62;2.00;;;;;;;9.26;63.23;100999.23;1754485;80;21410;-69
2022/04/11 08:24:32;;;;;;;9.10;3.20;;;;;;;9.34;62.79;101003.84;1746411;80;21042;-68
2022/04/11 08:26:59;;;;;;;11.57;2.50;;;;;;;9.52;62.50;101000.73;1754339;80;21181;-68
2022/04/11 08:29:26;;;;;;;9.65;2.92;;;;;;;9.71;62.18;100999.80;1754304;80;21065;-68
2022/04/11 08:31:52;;;;;;;7.58;2.30;;;;;;;9.96;61.88;101001.70;1755908;80;21176;-68
2022/04/11 08:34:18;;;;;;;8.48;3.22;;;;;;;10.03;61.37;101003.63;1753491;80;21021;-68
2022/04/11 08:36:44;;;;;;;13.05;6.95;;;;;;;10.04;60.95;101009.30;1753899;80;21561;-69
2022/04/11 08:39:11;;;;;;;4.55;1.92;;;;;;;10.08;60.57;101010.33;1752870;80;21078;-69
2022/04/11 08:41:37;;;;;;;4.97;1.70;;;;;;;9.80;59.99;101001.55;1753081;80;21028;-69
2022/04/11 08:44:05;;;;;;;7.75;2.60;;;;;;;9.42;59.50;101010.11;1754538;80;21182;-68
2022/04/11 08:46:32;;;;;;;4.35;1.60;;;;;;;9.48;59.26;101008.19;1756931;80;21007;-68
2022/04/11 08:48:59;;;;;;;4.22;2.27;;;;;;;9.40;58.82;101012.06;1754630;80;20999;-69
2022/04/11 08:51:26;;;;;;;7.03;2.25;;;;;;;9.51;58.47;101007.88;1752209;80;21002;-69
2022/04/11 08:53:52;;;;;;;5.00;2.45;;;;;;;9.84;58.29;100998.94;1749152;80;21019;-69
2022/04/11 08:56:18;;;;;;;8.23;3.47;;;;;;;10.10;57.98;100997.19;1752724;80;21132;-69
2022/04/11 08:58:44;;;;;;;14.07;5.35;;;;;;;10.25;57.64;101003.70;1754287;80;20915;-69
2022/04/11 09:01:10;;;;;;;8.03;2.00;;;;;;;10.36;57.24;100996.80;1752485;80;21118;-69
2022/04/11 09:03:36;;;;;;;15.20;6.37;;;;;;;10.22;56.73;100999.17;1750474;80;20981;-69
2022/04/11 09:06:07;;;;;;;12.53;3.80;;;;;;;10.25;56.38;101007.70;1753314;80;21586;-68
2022/04/11 09:08:54;;;;;;;13.90;3.83;;;;;;;10.17;55.94;101005.47;1754613;80;21137;-68
2022/04/11 09:11:33;;;;;;;5.15;1.75;;;;;;;10.07;55.39;100998.83;1753563;80;21097;-69
2022/04/11 09:14:05;;;;;;;7.60;2.10;;;;;;;10.15;55.10;100986.95;1750170;80;21121;-68
2022/04/11 09:16:50;;;;;;;3.58;1.75;;;;;;;10.07;54.71;100989.98;1752353;80;21006;-69
2022/04/11 09:19:27;;;;;;;5.12;1.87;;;;;;;9.96;54.32;100995.05;1754119;80;21057;-69
2022/04/11 09:21:56;;;;;;;6.58;1.92;;;;;;;10.21;54.28;100997.00;1746853;80;21156;-68
2022/04/11 09:24:24;;;;;;;8.80;2.27;;;;;;;10.43;53.92;100991.20;1741916;80;21061;-68
2022/04/11 09:26:58;;;;;;;3.08;1.55;;;;;;;10.70;53.77;101005.38;1733062;81;21535;-69
2022/04/11 09:29:27;;;;;;;4.62;1.40;;;;;;;10.88;53.46;100998.17;1747029;81;21039;-69
2022/04/11 09:31:53;;;;;;;4.58;1.77;;;;;;;10.70;52.73;100997.38;1742657;80;21072;-68
2022/04/11 09:34:21;;;;;;;4.90;1.80;;;;;;;10.01;52.10;100997.62;1745696;81;21513;-68
2022/04/11 09:36:54;;;;;;;3.65;1.47;;;;;;;9.80;52.14;100997.06;1736362;81;21534;-68
2022/04/11 09:39:22;;;;;;;9.18;1.98;;;;;;;10.10;52.07;100989.72;1721708;82;21015;-68
2022/04/11 09:41:49;;;;;;;2.60;1.37;;;;;;;10.02;51.79;100989.14;1755845;80;21016;-69
2022/04/11 09:44:27;;;;;;;4.58;1.70;;;;;;;9.72;51.43;101000.12;1748598;80;21053;-69
2022/04/11 09:46:59;;;;;;;4.67;1.30;;;;;;;9.50;51.32;100991.55;1750525;80;21158;-69
2022/04/11 09:49:26;;;;;;;8.48;3.15;;;;;;;9.37;51.25;100991.56;1750167;80;21048;-68
2022/04/11 09:52:14;;;;;;;7.53;3.22;;;;;;;9.33;51.21;100995.01;1757115;80;21498;-68
2022/04/11 09:54:47;;;;;;;3.47;1.75;;;;;;;9.27;51.14;100991.61;1727277;81;21073;-69
2022/04/11 09:57:16;;;;;;;7.72;2.47;;;;;;;9.36;51.05;100992.53;1752565;81;21608;-68
2022/04/11 09:59:43;;;;;;;8.23;2.55;;;;;;;9.38;51.04;100989.25;1766765;80;21334;-69
2022/04/11 10:02:12;;;;;;;5.87;1.87;;;;;;;9.42;51.07;100983.49;1758595;81;21593;-68
2022/04/11 10:04:39;;;;;;;27.00;13.95;;;;;;;9.44;50.99;100978.84;1723425;83;21049;-68
2022/04/11 10:07:10;;;;;;;4.95;1.98;;;;;;;9.37;50.84;100982.24;1747045;82;21058;-68
2022/04/11 10:09:39;;;;;;;4.72;1.87;;;;;;;9.37;50.65;100979.58;1759423;81;21022;-69
2022/04/11 10:12:07;;;;;;;12.07;4.28;;;;;;;9.80;50.59;100972.25;1759900;81;21117;-69
2022/04/11 10:14:33;;;;;;;16.10;6.08;;;;;;;10.12;50.46;100981.06;1760845;80;21758;-69
2022/04/11 10:17:01;;;;;;;11.45;3.17;;;;;;;10.24;50.38;100975.88;1760125;80;21661;-69
2022/04/11 10:19:31;;;;;;;4.80;1.75;;;;;;;10.51;50.31;100975.27;1759972;81;21100;-68
2022/04/11 10:22:03;;;;;;;8.53;1.40;;;;;;;10.69;50.04;100973.05;1758058;80;21057;-69
2022/04/11 10:24:34;;;;;;;5.62;2.50;;;;;;;10.43;49.68;100979.20;1758785;80;21147;-68
2022/04/11 10:27:22;;;;;;;3.87;1.80;;;;;;;10.14;49.48;100979.06;1757082;80;21011;-69
2022/04/11 10:29:50;;;;;;;5.47;1.90;;;;;;;9.83;49.34;100977.27;1752072;81;21521;-68
2022/04/11 10:32:20;;;;;;;6.15;1.30;;;;;;;9.62;49.25;100988.69;1726265;81;21034;-68
2022/04/11 10:35:03;;;;;;;4.62;2.15;;;;;;;9.45;49.15;100980.53;1752926;81;20999;-68
2022/04/11 10:37:53;;;;;;;5.53;2.22;;;;;;;9.43;49.19;100981.16;1756471;81;21146;-68
2022/04/11 10:40:24;;;;;;;4.00;1.52;;;;;;;9.53;49.18;100980.60;1757117;80;21095;-68
2022/04/11 10:43:08;;;;;;;6.95;1.80;;;;;;;9.37;49.02;100973.77;1757339;81;21063;-68
2022/04/11 10:45:42;;;;;;;8.18;4.37;;;;;;;9.31;48.91;100978.36;1757139;81;21046;-68
2022/04/11 10:48:10;;;;;;;6.28;2.83;;;;;;;9.62;48.94;100972.72;1757266;81;21032;-68
2022/04/11 10:50:40;;;;;;;8.45;3.20;;;;;;;9.91;48.78;100973.37;1753402;80;21961;-67
2022/04/11 10:53:24;;;;;;;7.67;3.08;;;;;;;10.26;48.63;100965.40;1759972;80;21002;-68
2022/04/11 10:56:05;;;;;;;5.42;2.00;;;;;;;10.71;48.59;100968.39;1727677;82;21017;-68
2022/04/11 10:58:50;;;;;;;10.48;4.12;;;;;;;11.05;48.45;100962.58;1727559;82;21018;-68
2022/04/11 11:01:49;;;;;;;7.40;2.30;;;;;;;11.00;48.19;100964.91;1724247;82;21046;-69
2022/04/11 11:04:17;;;;;;;6.37;2.85;;;;;;;10.50;47.86;100972.25;1759333;80;21071;-68
2022/04/11 11:06:43;;;;;;;14.75;5.40;;;;;;;10.12;47.70;100965.06;1761907;81;21033;-68
2022/04/11 11:09:17;;;;;;;9.18;1.70;;;;;;;10.01;47.74;100971.46;1719528;81;21007;-68
2022/04/11 11:11:45;;;;;;;3.35;1.70;;;;;;;9.78;47.40;100960.92;1757721;81;21065;-68
2022/04/11 11:14:41;;;;;;;5.83;2.75;;;;;;;9.75;47.27;100951.87;1758021;81;21019;-68
2022/04/11 11:17:07;;;;;;;4.83;2.45;;;;;;;9.93;47.20;100950.06;1758955;80;21541;-68
2022/04/11 11:20:06;;;;;;;6.00;2.35;;;;;;;9.85;46.77;100953.48;1757387;81;21429;-68
2022/04/11 11:22:55;;;;;;;6.78;2.58;;;;;;;9.70;46.57;100952.84;1757749;80;21030;-69
2022/04/11 11:25:21;;;;;;;2.58;1.22;;;;;;;9.68;46.54;100956.13;1742320;81;21062;-69
2022/04/11 11:27:49;;;;;;;4.25;1.40;;;;;;;9.61;46.48;100952.39;1730933;80;21087;-69
2022/04/11 11:30:15;;;;;;;3.70;2.10;;;;;;;9.60;46.57;100953.41;1727152;82;21196;-68